sensor_id;sensor_type;location;lat;lon;timestamp;temperature;humidity
36594;DHT22;22603;47.900;8.146;2022-07-03T00:02:35;12.50;99.90
36594;DHT22;22603;47.900;8.146;2022-07-03T00:05:23;12.50;99.90
36594;DHT22;22603;47.900;8.146;2022-07-03T00:08:11;12.40;99.90
36594;DHT22;22603;47.900;8.146;2022-07-03T00:10:59;12.30;99.90
36594;DHT22;22603;47.900;8.146;2022-07-03T00:13:46;12.30;99.90
36594;DHT22;22603;47.900;8.146;2022-07-03T00:16:33;12.20;99.90
36594;DHT22;22603;47.900;8.146;2022-07-03T00:19:22;12.10;99.90
36594;DHT22;22603;47.900;8.146;2022-07-03T00:22:11;12.10;99.90
36594;DHT22;22603;47.900;8.146;2022-07-03T00:25:02;12.10;99.90
36594;DHT22;22603;47.900;8.146;2022-07-03T00:27:50;12.10;99.90
36594;DHT22;22603;47.900;8.146;2022-07-03T00:30:38;12.10;99.90
36594;DHT22;22603;47.900;8.146;2022-07-03T00:33:27;12.10;99.90
36594;DHT22;22603;47.900;8.146;2022-07-03T00:36:17;12.00;99.90
36594;DHT22;22603;47.900;8.146;2022-07-03T00:39:05;12.00;99.90
36594;DHT22;22603;47.900;8.146;2022-07-03T00:42:02;11.90;99.90
36594;DHT22;22603;47.900;8.146;2022-07-03T00:44:51;11.90;99.90
36594;DHT22;22603;47.900;8.146;2022-07-03T00:47:40;11.80;99.90
36594;DHT22;22603;47.900;8.146;2022-07-03T00:50:34;11.80;99.90
36594;DHT22;22603;47.900;8.146;2022-07-03T00:53:28;11.70;99.90
36594;DHT22;22603;47.900;8.146;2022-07-03T00:56:16;11.70;99.90
36594;DHT22;22603;47.900;8.146;2022-07-03T00:59:07;11.60;99.90
36594;DHT22;22603;47.900;8.146;2022-07-03T01:02:02;11.60;99.90
36594;DHT22;22603;47.900;8.146;2022-07-03T01:04:57;11.50;99.90
36594;DHT22;22603;47.900;8.146;2022-07-03T01:07:51;11.50;99.90
36594;DHT22;22603;47.900;8.146;2022-07-03T01:10:46;11.40;99.90
36594;DHT22;22603;47.900;8.146;2022-07-03T01:13:39;11.40;99.90
36594;DHT22;22603;47.900;8.146;2022-07-03T01:16:40;11.40;99.90
36594;DHT22;22603;47.900;8.146;2022-07-03T01:19:37;11.30;99.90
36594;DHT22;22603;47.900;8.146;2022-07-03T01:22:30;11.30;99.90
36594;DHT22;22603;47.900;8.146;2022-07-03T01:25:24;11.30;99.90
36594;DHT22;22603;47.900;8.146;2022-07-03T01:28:14;11.30;99.90
36594;DHT22;22603;47.900;8.146;2022-07-03T01:31:02;11.30;99.90
36594;DHT22;22603;47.900;8.146;2022-07-03T01:33:50;11.20;99.90
36594;DHT22;22603;47.900;8.146;2022-07-03T01:36:41;11.20;99.90
36594;DHT22;22603;47.900;8.146;2022-07-03T01:39:28;11.10;99.90
36594;DHT22;22603;47.900;8.146;2022-07-03T01:42:37;11.00;99.90
36594;DHT22;22603;47.900;8.146;2022-07-03T01:45:31;11.00;99.90
36594;DHT22;22603;47.900;8.146;2022-07-03T01:48:18;11.00;99.90
36594;DHT22;22603;47.900;8.146;2022-07-03T01:51:06;10.90;99.90
36594;DHT22;22603;47.900;8.146;2022-07-03T01:53:57;10.90;99.90
36594;DHT22;22603;47.900;8.146;2022-07-03T01:56:46;10.80;99.90
36594;DHT22;22603;47.900;8.146;2022-07-03T01:59:34;10.80;99.90
36594;DHT22;22603;47.900;8.146;2022-07-03T02:02:25;10.80;99.90
36594;DHT22;22603;47.900;8.146;2022-07-03T02:05:26;10.80;99.90
36594;DHT22;22603;47.900;8.146;2022-07-03T02:08:27;10.80;99.90
36594;DHT22;22603;47.900;8.146;2022-07-03T02:11:19;10.80;99.90
36594;DHT22;22603;47.900;8.146;2022-07-03T02:14:11;10.70;99.90
36594;DHT22;22603;47.900;8.146;2022-07-03T02:17:11;10.60;99.90
36594;DHT22;22603;47.900;8.146;2022-07-03T02:20:04;10.50;99.90
36594;DHT22;22603;47.900;8.146;2022-07-03T02:22:57;10.50;99.90
36594;DHT22;22603;47.900;8.146;2022-07-03T02:25:44;10.50;99.90
36594;DHT22;22603;47.900;8.146;2022-07-03T02:28:50;10.50;99.90
36594;DHT22;22603;47.900;8.146;2022-07-03T02:31:43;10.40;99.90
36594;DHT22;22603;47.900;8.146;2022-07-03T02:34:31;10.40;99.90
36594;DHT22;22603;47.900;8.146;2022-07-03T02:37:22;10.40;99.90
36594;DHT22;22603;47.900;8.146;2022-07-03T02:40:20;10.30;99.90
36594;DHT22;22603;47.900;8.146;2022-07-03T02:43:15;10.30;99.90
36594;DHT22;22603;47.900;8.146;2022-07-03T02:46:06;10.20;99.90
36594;DHT22;22603;47.900;8.146;2022-07-03T02:49:16;10.10;99.90
36594;DHT22;22603;47.900;8.146;2022-07-03T02:52:13;10.10;99.90
36594;DHT22;22603;47.900;8.146;2022-07-03T02:55:08;10.10;99.90
36594;DHT22;22603;47.900;8.146;2022-07-03T02:58:01;10.10;99.90
36594;DHT22;22603;47.900;8.146;2022-07-03T03:00:57;10.00;99.90
36594;DHT22;22603;47.900;8.146;2022-07-03T03:03:52;10.00;99.90
36594;DHT22;22603;47.900;8.146;2022-07-03T03:06:55;9.90;99.90
36594;DHT22;22603;47.900;8.146;2022-07-03T03:09:43;10.00;99.90
36594;DHT22;22603;47.900;8.146;2022-07-03T03:12:36;10.00;99.90
36594;DHT22;22603;47.900;8.146;2022-07-03T03:15:28;9.90;99.90
36594;DHT22;22603;47.900;8.146;2022-07-03T03:18:21;9.90;99.90
36594;DHT22;22603;47.900;8.146;2022-07-03T03:21:10;10.00;99.90
36594;DHT22;22603;47.900;8.146;2022-07-03T03:23:59;9.90;99.90
36594;DHT22;22603;47.900;8.146;2022-07-03T03:26:46;9.90;99.90
36594;DHT22;22603;47.900;8.146;2022-07-03T03:29:35;9.90;99.90
36594;DHT22;22603;47.900;8.146;2022-07-03T03:32:22;9.80;99.90
36594;DHT22;22603;47.900;8.146;2022-07-03T03:35:11;9.80;99.90
36594;DHT22;22603;47.900;8.146;2022-07-03T03:37:58;9.80;99.90
36594;DHT22;22603;47.900;8.146;2022-07-03T03:40:46;9.80;99.90
36594;DHT22;22603;47.900;8.146;2022-07-03T03:43:33;9.80;99.90
36594;DHT22;22603;47.900;8.146;2022-07-03T03:46:22;9.80;99.90
36594;DHT22;22603;47.900;8.146;2022-07-03T03:49:09;9.70;99.90
36594;DHT22;22603;47.900;8.146;2022-07-03T03:51:56;9.70;99.90
36594;DHT22;22603;47.900;8.146;2022-07-03T03:54:44;9.70;99.90
36594;DHT22;22603;47.900;8.146;2022-07-03T03:57:31;9.70;99.90
36594;DHT22;22603;47.900;8.146;2022-07-03T04:00:20;9.70;99.90
36594;DHT22;22603;47.900;8.146;2022-07-03T04:03:09;9.80;99.90
36594;DHT22;22603;47.900;8.146;2022-07-03T04:05:56;9.80;99.90
36594;DHT22;22603;47.900;8.146;2022-07-03T04:08:43;9.70;99.90
36594;DHT22;22603;47.900;8.146;2022-07-03T04:11:30;9.80;99.90
36594;DHT22;22603;47.900;8.146;2022-07-03T04:14:17;9.80;99.90
36594;DHT22;22603;47.900;8.146;2022-07-03T04:17:04;9.90;99.90
36594;DHT22;22603;47.900;8.146;2022-07-03T04:19:52;9.90;99.90
36594;DHT22;22603;47.900;8.146;2022-07-03T04:22:39;10.00;99.90
36594;DHT22;22603;47.900;8.146;2022-07-03T04:25:26;10.10;99.90
36594;DHT22;22603;47.900;8.146;2022-07-03T04:28:14;10.10;99.90
36594;DHT22;22603;47.900;8.146;2022-07-03T04:31:06;10.10;99.90
36594;DHT22;22603;47.900;8.146;2022-07-03T04:33:53;10.20;99.90
36594;DHT22;22603;47.900;8.146;2022-07-03T04:36:42;10.20;99.90
36594;DHT22;22603;47.900;8.146;2022-07-03T04:39:29;10.30;99.90
36594;DHT22;22603;47.900;8.146;2022-07-03T04:42:16;10.30;99.90
36594;DHT22;22603;47.900;8.146;2022-07-03T04:45:04;10.40;99.90
36594;DHT22;22603;47.900;8.146;2022-07-03T04:47:51;10.50;99.90
36594;DHT22;22603;47.900;8.146;2022-07-03T04:50:38;10.50;99.90
36594;DHT22;22603;47.900;8.146;2022-07-03T04:53:26;10.60;99.90
36594;DHT22;22603;47.900;8.146;2022-07-03T04:56:13;10.70;99.90
36594;DHT22;22603;47.900;8.146;2022-07-03T04:59:01;10.80;99.90
36594;DHT22;22603;47.900;8.146;2022-07-03T05:01:48;10.90;99.90
36594;DHT22;22603;47.900;8.146;2022-07-03T05:04:35;11.00;99.90
36594;DHT22;22603;47.900;8.146;2022-07-03T05:07:22;11.10;99.90
36594;DHT22;22603;47.900;8.146;2022-07-03T05:10:10;11.20;99.90
36594;DHT22;22603;47.900;8.146;2022-07-03T05:12:57;11.30;99.90
36594;DHT22;22603;47.900;8.146;2022-07-03T05:15:44;11.50;99.90
36594;DHT22;22603;47.900;8.146;2022-07-03T05:18:31;11.60;99.90
36594;DHT22;22603;47.900;8.146;2022-07-03T05:21:20;11.70;99.90
36594;DHT22;22603;47.900;8.146;2022-07-03T05:24:07;11.80;99.90
36594;DHT22;22603;47.900;8.146;2022-07-03T05:26:58;11.90;99.90
36594;DHT22;22603;47.900;8.146;2022-07-03T05:29:48;12.10;99.90
36594;DHT22;22603;47.900;8.146;2022-07-03T05:32:35;12.20;99.90
36594;DHT22;22603;47.900;8.146;2022-07-03T05:35:22;12.30;99.90
36594;DHT22;22603;47.900;8.146;2022-07-03T05:38:10;12.50;99.90
36594;DHT22;22603;47.900;8.146;2022-07-03T05:40:57;12.60;99.90
36594;DHT22;22603;47.900;8.146;2022-07-03T05:43:45;12.70;99.90
36594;DHT22;22603;47.900;8.146;2022-07-03T05:46:32;12.90;99.90
36594;DHT22;22603;47.900;8.146;2022-07-03T05:49:20;13.00;99.90
36594;DHT22;22603;47.900;8.146;2022-07-03T05:52:07;13.20;99.90
36594;DHT22;22603;47.900;8.146;2022-07-03T05:54:55;13.20;99.90
36594;DHT22;22603;47.900;8.146;2022-07-03T05:57:42;13.40;99.90
36594;DHT22;22603;47.900;8.146;2022-07-03T06:00:30;13.50;99.90
36594;DHT22;22603;47.900;8.146;2022-07-03T06:03:17;13.60;99.90
36594;DHT22;22603;47.900;8.146;2022-07-03T06:06:05;13.70;99.90
36594;DHT22;22603;47.900;8.146;2022-07-03T06:08:52;13.80;99.90
36594;DHT22;22603;47.900;8.146;2022-07-03T06:11:39;14.00;99.90
36594;DHT22;22603;47.900;8.146;2022-07-03T06:14:26;14.10;99.90
36594;DHT22;22603;47.900;8.146;2022-07-03T06:17:14;14.20;99.90
36594;DHT22;22603;47.900;8.146;2022-07-03T06:20:01;14.70;99.90
36594;DHT22;22603;47.900;8.146;2022-07-03T06:22:49;15.60;99.90
36594;DHT22;22603;47.900;8.146;2022-07-03T06:25:36;16.60;99.90
36594;DHT22;22603;47.900;8.146;2022-07-03T06:28:23;17.30;99.90
36594;DHT22;22603;47.900;8.146;2022-07-03T06:31:10;18.10;99.90
36594;DHT22;22603;47.900;8.146;2022-07-03T06:33:59;18.70;99.90
36594;DHT22;22603;47.900;8.146;2022-07-03T06:36:46;19.60;99.90
36594;DHT22;22603;47.900;8.146;2022-07-03T06:39:33;20.40;99.90
36594;DHT22;22603;47.900;8.146;2022-07-03T06:42:20;20.80;99.90
36594;DHT22;22603;47.900;8.146;2022-07-03T06:45:07;21.40;99.90
36594;DHT22;22603;47.900;8.146;2022-07-03T06:47:55;21.70;99.90
36594;DHT22;22603;47.900;8.146;2022-07-03T06:50:43;21.10;99.90
36594;DHT22;22603;47.900;8.146;2022-07-03T06:53:31;21.80;99.90
36594;DHT22;22603;47.900;8.146;2022-07-03T06:56:18;22.40;99.90
36594;DHT22;22603;47.900;8.146;2022-07-03T06:59:05;22.70;99.90
36594;DHT22;22603;47.900;8.146;2022-07-03T07:01:52;22.70;99.90
36594;DHT22;22603;47.900;8.146;2022-07-03T07:04:39;23.50;99.90
36594;DHT22;22603;47.900;8.146;2022-07-03T07:07:28;24.00;99.90
36594;DHT22;22603;47.900;8.146;2022-07-03T07:10:15;23.50;99.90
36594;DHT22;22603;47.900;8.146;2022-07-03T07:13:02;23.80;99.90
36594;DHT22;22603;47.900;8.146;2022-07-03T07:15:49;23.80;99.90
36594;DHT22;22603;47.900;8.146;2022-07-03T07:18:36;25.10;99.90
36594;DHT22;22603;47.900;8.146;2022-07-03T07:21:23;26.00;99.90
36594;DHT22;22603;47.900;8.146;2022-07-03T07:24:12;26.90;99.90
36594;DHT22;22603;47.900;8.146;2022-07-03T07:26:59;26.60;99.90
36594;DHT22;22603;47.900;8.146;2022-07-03T07:29:46;26.30;99.90
36594;DHT22;22603;47.900;8.146;2022-07-03T07:32:33;26.80;99.90
36594;DHT22;22603;47.900;8.146;2022-07-03T07:35:20;26.90;99.90
36594;DHT22;22603;47.900;8.146;2022-07-03T07:38:07;28.00;99.90
36594;DHT22;22603;47.900;8.146;2022-07-03T07:40:56;28.40;99.90
36594;DHT22;22603;47.900;8.146;2022-07-03T07:43:43;29.30;99.90
36594;DHT22;22603;47.900;8.146;2022-07-03T07:46:30;30.00;99.90
36594;DHT22;22603;47.900;8.146;2022-07-03T07:49:17;30.00;99.90
36594;DHT22;22603;47.900;8.146;2022-07-03T07:52:04;30.00;99.90
36594;DHT22;22603;47.900;8.146;2022-07-03T07:54:52;30.10;99.90
36594;DHT22;22603;47.900;8.146;2022-07-03T07:57:41;30.20;99.90
36594;DHT22;22603;47.900;8.146;2022-07-03T08:00:28;30.20;99.90
36594;DHT22;22603;47.900;8.146;2022-07-03T08:03:15;30.00;99.90
36594;DHT22;22603;47.900;8.146;2022-07-03T08:06:20;29.90;99.90
36594;DHT22;22603;47.900;8.146;2022-07-03T08:09:07;29.90;99.90
36594;DHT22;22603;47.900;8.146;2022-07-03T08:11:54;29.70;99.90
36594;DHT22;22603;47.900;8.146;2022-07-03T08:14:43;29.70;99.90
36594;DHT22;22603;47.900;8.146;2022-07-03T08:17:30;29.90;99.90
36594;DHT22;22603;47.900;8.146;2022-07-03T08:20:17;30.20;99.90
36594;DHT22;22603;47.900;8.146;2022-07-03T08:23:04;30.00;99.90
36594;DHT22;22603;47.900;8.146;2022-07-03T08:25:51;30.50;99.90
36594;DHT22;22603;47.900;8.146;2022-07-03T08:28:38;30.80;99.90
36594;DHT22;22603;47.900;8.146;2022-07-03T08:31:26;30.80;99.90
36594;DHT22;22603;47.900;8.146;2022-07-03T08:34:14;30.90;99.90
36594;DHT22;22603;47.900;8.146;2022-07-03T08:37:01;31.00;99.90
36594;DHT22;22603;47.900;8.146;2022-07-03T08:39:47;31.50;99.90
36594;DHT22;22603;47.900;8.146;2022-07-03T08:42:37;31.50;99.90
36594;DHT22;22603;47.900;8.146;2022-07-03T08:45:25;31.90;99.90
36594;DHT22;22603;47.900;8.146;2022-07-03T08:48:15;31.10;99.90
36594;DHT22;22603;47.900;8.146;2022-07-03T08:51:03;31.70;99.90
36594;DHT22;22603;47.900;8.146;2022-07-03T08:53:53;32.20;99.90
36594;DHT22;22603;47.900;8.146;2022-07-03T08:56:41;32.60;99.90
36594;DHT22;22603;47.900;8.146;2022-07-03T08:59:32;32.40;99.90
36594;DHT22;22603;47.900;8.146;2022-07-03T09:02:21;32.70;99.90
36594;DHT22;22603;47.900;8.146;2022-07-03T09:05:11;32.40;99.90
36594;DHT22;22603;47.900;8.146;2022-07-03T09:07:59;32.40;99.90
36594;DHT22;22603;47.900;8.146;2022-07-03T09:10:47;32.50;99.90
36594;DHT22;22603;47.900;8.146;2022-07-03T09:13:33;32.10;99.90
36594;DHT22;22603;47.900;8.146;2022-07-03T09:16:20;32.50;99.90
36594;DHT22;22603;47.900;8.146;2022-07-03T09:19:08;32.30;99.90
36594;DHT22;22603;47.900;8.146;2022-07-03T09:21:57;33.20;99.90
36594;DHT22;22603;47.900;8.146;2022-07-03T09:24:44;32.70;99.90
36594;DHT22;22603;47.900;8.146;2022-07-03T09:31:00;32.40;99.90
36594;DHT22;22603;47.900;8.146;2022-07-03T09:33:53;32.90;99.90
36594;DHT22;22603;47.900;8.146;2022-07-03T09:36:43;32.10;99.90
36594;DHT22;22603;47.900;8.146;2022-07-03T09:39:31;32.50;99.90
36594;DHT22;22603;47.900;8.146;2022-07-03T09:42:22;33.20;99.90
36594;DHT22;22603;47.900;8.146;2022-07-03T09:45:10;33.00;99.90
36594;DHT22;22603;47.900;8.146;2022-07-03T09:47:59;33.50;99.90
36594;DHT22;22603;47.900;8.146;2022-07-03T09:51:12;33.30;99.90
36594;DHT22;22603;47.900;8.146;2022-07-03T09:54:00;33.60;99.90
36594;DHT22;22603;47.900;8.146;2022-07-03T09:56:49;33.90;99.90
36594;DHT22;22603;47.900;8.146;2022-07-03T09:59:36;34.00;99.90
36594;DHT22;22603;47.900;8.146;2022-07-03T10:02:23;33.60;99.90
36594;DHT22;22603;47.900;8.146;2022-07-03T10:05:11;33.80;99.90
36594;DHT22;22603;47.900;8.146;2022-07-03T10:08:04;33.70;99.90
36594;DHT22;22603;47.900;8.146;2022-07-03T10:10:52;34.10;99.90
36594;DHT22;22603;47.900;8.146;2022-07-03T10:13:41;34.20;99.90
36594;DHT22;22603;47.900;8.146;2022-07-03T10:16:28;34.10;99.90
36594;DHT22;22603;47.900;8.146;2022-07-03T10:19:18;33.90;99.90
36594;DHT22;22603;47.900;8.146;2022-07-03T10:22:09;33.60;99.90
36594;DHT22;22603;47.900;8.146;2022-07-03T10:24:58;34.50;99.90
36594;DHT22;22603;47.900;8.146;2022-07-03T10:28:11;34.70;99.90
36594;DHT22;22603;47.900;8.146;2022-07-03T10:31:13;34.90;99.90
36594;DHT22;22603;47.900;8.146;2022-07-03T10:34:01;34.90;99.90
36594;DHT22;22603;47.900;8.146;2022-07-03T10:36:52;35.20;99.90
36594;DHT22;22603;47.900;8.146;2022-07-03T10:39:46;35.10;99.90
36594;DHT22;22603;47.900;8.146;2022-07-03T10:42:36;35.20;99.90
36594;DHT22;22603;47.900;8.146;2022-07-03T10:46:10;35.00;99.90
36594;DHT22;22603;47.900;8.146;2022-07-03T10:49:04;34.90;99.90
36594;DHT22;22603;47.900;8.146;2022-07-03T10:51:55;34.90;99.90
36594;DHT22;22603;47.900;8.146;2022-07-03T10:54:50;34.70;99.90
36594;DHT22;22603;47.900;8.146;2022-07-03T10:57:38;34.70;99.90
36594;DHT22;22603;47.900;8.146;2022-07-03T11:00:25;34.20;99.90
36594;DHT22;22603;47.900;8.146;2022-07-03T11:03:12;34.30;99.90
36594;DHT22;22603;47.900;8.146;2022-07-03T11:06:22;34.40;99.90
36594;DHT22;22603;47.900;8.146;2022-07-03T11:09:29;34.10;99.90
36594;DHT22;22603;47.900;8.146;2022-07-03T11:12:16;34.20;99.90
36594;DHT22;22603;47.900;8.146;2022-07-03T11:15:24;33.70;99.90
36594;DHT22;22603;47.900;8.146;2022-07-03T11:18:31;33.90;99.90
36594;DHT22;22603;47.900;8.146;2022-07-03T11:21:30;33.90;99.90
36594;DHT22;22603;47.900;8.146;2022-07-03T11:24:34;34.10;99.90
36594;DHT22;22603;47.900;8.146;2022-07-03T11:27:26;33.60;99.90
36594;DHT22;22603;47.900;8.146;2022-07-03T11:30:15;33.60;99.90
36594;DHT22;22603;47.900;8.146;2022-07-03T11:33:03;33.90;99.90
36594;DHT22;22603;47.900;8.146;2022-07-03T11:35:53;33.60;99.90
36594;DHT22;22603;47.900;8.146;2022-07-03T11:38:42;33.70;99.90
36594;DHT22;22603;47.900;8.146;2022-07-03T11:41:40;33.40;99.90
36594;DHT22;22603;47.900;8.146;2022-07-03T11:44:28;33.50;99.90
36594;DHT22;22603;47.900;8.146;2022-07-03T11:47:15;33.10;99.90
36594;DHT22;22603;47.900;8.146;2022-07-03T11:50:08;33.30;99.90
36594;DHT22;22603;47.900;8.146;2022-07-03T11:52:55;33.20;99.90
36594;DHT22;22603;47.900;8.146;2022-07-03T11:55:47;33.10;99.90
36594;DHT22;22603;47.900;8.146;2022-07-03T11:58:42;33.20;99.90
36594;DHT22;22603;47.900;8.146;2022-07-03T12:01:32;33.30;99.90
36594;DHT22;22603;47.900;8.146;2022-07-03T12:04:21;33.30;99.90
36594;DHT22;22603;47.900;8.146;2022-07-03T12:07:08;33.40;99.90
36594;DHT22;22603;47.900;8.146;2022-07-03T12:09:55;32.60;99.90
36594;DHT22;22603;47.900;8.146;2022-07-03T12:12:43;33.00;99.90
36594;DHT22;22603;47.900;8.146;2022-07-03T12:15:30;32.80;99.90
36594;DHT22;22603;47.900;8.146;2022-07-03T12:18:18;32.80;99.90
36594;DHT22;22603;47.900;8.146;2022-07-03T12:21:05;32.30;99.90
36594;DHT22;22603;47.900;8.146;2022-07-03T12:23:53;32.50;99.90
36594;DHT22;22603;47.900;8.146;2022-07-03T12:26:41;32.70;99.90
36594;DHT22;22603;47.900;8.146;2022-07-03T12:29:29;32.50;99.90
36594;DHT22;22603;47.900;8.146;2022-07-03T12:32:16;32.80;99.90
36594;DHT22;22603;47.900;8.146;2022-07-03T12:35:04;32.10;99.90
36594;DHT22;22603;47.900;8.146;2022-07-03T12:37:51;32.50;99.90
36594;DHT22;22603;47.900;8.146;2022-07-03T12:40:39;32.70;99.90
36594;DHT22;22603;47.900;8.146;2022-07-03T12:43:26;32.80;99.90
36594;DHT22;22603;47.900;8.146;2022-07-03T12:46:20;33.00;99.90
36594;DHT22;22603;47.900;8.146;2022-07-03T12:49:08;32.70;99.90
36594;DHT22;22603;47.900;8.146;2022-07-03T12:51:57;32.80;99.90
36594;DHT22;22603;47.900;8.146;2022-07-03T12:54:44;32.50;99.90
36594;DHT22;22603;47.900;8.146;2022-07-03T12:57:31;32.40;99.90
36594;DHT22;22603;47.900;8.146;2022-07-03T13:00:42;32.40;99.90
36594;DHT22;22603;47.900;8.146;2022-07-03T13:03:35;32.40;99.90
36594;DHT22;22603;47.900;8.146;2022-07-03T13:06:26;31.70;99.90
36594;DHT22;22603;47.900;8.146;2022-07-03T13:09:13;31.70;99.90
36594;DHT22;22603;47.900;8.146;2022-07-03T13:12:00;31.80;99.90
36594;DHT22;22603;47.900;8.146;2022-07-03T13:14:55;31.90;99.90
36594;DHT22;22603;47.900;8.146;2022-07-03T13:18:01;32.10;99.90
36594;DHT22;22603;47.900;8.146;2022-07-03T13:20:50;31.20;99.90
36594;DHT22;22603;47.900;8.146;2022-07-03T13:23:38;31.10;99.90
36594;DHT22;22603;47.900;8.146;2022-07-03T13:26:25;31.30;99.90
36594;DHT22;22603;47.900;8.146;2022-07-03T13:29:12;31.50;99.90
36594;DHT22;22603;47.900;8.146;2022-07-03T13:31:59;31.50;99.90
36594;DHT22;22603;47.900;8.146;2022-07-03T13:34:46;31.50;99.90
36594;DHT22;22603;47.900;8.146;2022-07-03T13:37:35;31.50;99.90
36594;DHT22;22603;47.900;8.146;2022-07-03T13:40:22;31.40;99.90
36594;DHT22;22603;47.900;8.146;2022-07-03T13:43:10;31.20;99.90
36594;DHT22;22603;47.900;8.146;2022-07-03T13:45:57;31.40;99.90
36594;DHT22;22603;47.900;8.146;2022-07-03T13:48:44;31.70;99.90
36594;DHT22;22603;47.900;8.146;2022-07-03T13:51:31;31.90;99.90
36594;DHT22;22603;47.900;8.146;2022-07-03T13:54:20;31.90;99.90
36594;DHT22;22603;47.900;8.146;2022-07-03T13:57:07;32.30;99.90
36594;DHT22;22603;47.900;8.146;2022-07-03T13:59:54;32.20;99.90
36594;DHT22;22603;47.900;8.146;2022-07-03T14:02:41;32.00;99.90
36594;DHT22;22603;47.900;8.146;2022-07-03T14:05:29;31.60;99.90
36594;DHT22;22603;47.900;8.146;2022-07-03T14:08:15;31.90;99.90
36594;DHT22;22603;47.900;8.146;2022-07-03T14:11:03;32.00;99.90
36594;DHT22;22603;47.900;8.146;2022-07-03T14:13:50;31.30;99.90
36594;DHT22;22603;47.900;8.146;2022-07-03T14:16:38;30.90;99.90
36594;DHT22;22603;47.900;8.146;2022-07-03T14:19:25;30.00;99.90
36594;DHT22;22603;47.900;8.146;2022-07-03T14:22:12;29.90;99.90
36594;DHT22;22603;47.900;8.146;2022-07-03T14:24:58;30.10;99.90
36594;DHT22;22603;47.900;8.146;2022-07-03T14:28:00;30.10;99.90
36594;DHT22;22603;47.900;8.146;2022-07-03T14:31:05;30.30;99.90
36594;DHT22;22603;47.900;8.146;2022-07-03T14:34:10;29.40;99.90
36594;DHT22;22603;47.900;8.146;2022-07-03T14:36:57;30.10;99.90
36594;DHT22;22603;47.900;8.146;2022-07-03T14:39:44;28.80;99.90
36594;DHT22;22603;47.900;8.146;2022-07-03T14:42:30;28.80;99.90
36594;DHT22;22603;47.900;8.146;2022-07-03T14:45:19;29.40;99.90
36594;DHT22;22603;47.900;8.146;2022-07-03T14:48:07;29.20;99.90
36594;DHT22;22603;47.900;8.146;2022-07-03T14:50:54;28.80;99.90
36594;DHT22;22603;47.900;8.146;2022-07-03T14:53:42;29.50;99.90
36594;DHT22;22603;47.900;8.146;2022-07-03T14:56:29;30.00;99.90
36594;DHT22;22603;47.900;8.146;2022-07-03T14:59:21;29.30;99.90
36594;DHT22;22603;47.900;8.146;2022-07-03T15:02:18;28.80;99.90
36594;DHT22;22603;47.900;8.146;2022-07-03T15:05:08;28.40;99.90
36594;DHT22;22603;47.900;8.146;2022-07-03T15:08:04;28.60;99.90
36594;DHT22;22603;47.900;8.146;2022-07-03T15:10:53;29.30;99.90
36594;DHT22;22603;47.900;8.146;2022-07-03T15:13:40;28.40;99.90
36594;DHT22;22603;47.900;8.146;2022-07-03T15:16:29;28.60;99.90
36594;DHT22;22603;47.900;8.146;2022-07-03T15:19:19;28.20;99.90
36594;DHT22;22603;47.900;8.146;2022-07-03T15:22:07;28.60;99.90
36594;DHT22;22603;47.900;8.146;2022-07-03T15:24:57;28.30;99.90
36594;DHT22;22603;47.900;8.146;2022-07-03T15:27:48;28.50;99.90
36594;DHT22;22603;47.900;8.146;2022-07-03T15:30:36;28.60;99.90
36594;DHT22;22603;47.900;8.146;2022-07-03T15:33:26;28.30;99.90
36594;DHT22;22603;47.900;8.146;2022-07-03T15:36:17;28.80;99.90
36594;DHT22;22603;47.900;8.146;2022-07-03T15:39:05;28.80;99.90
36594;DHT22;22603;47.900;8.146;2022-07-03T15:42:03;28.90;99.90
36594;DHT22;22603;47.900;8.146;2022-07-03T15:44:56;28.90;99.90
36594;DHT22;22603;47.900;8.146;2022-07-03T15:47:54;29.40;99.90
36594;DHT22;22603;47.900;8.146;2022-07-03T15:50:49;29.50;99.90
36594;DHT22;22603;47.900;8.146;2022-07-03T15:53:40;29.30;99.90
36594;DHT22;22603;47.900;8.146;2022-07-03T15:56:32;29.40;99.90
36594;DHT22;22603;47.900;8.146;2022-07-03T15:59:21;29.30;99.90
36594;DHT22;22603;47.900;8.146;2022-07-03T16:02:17;28.90;99.90
36594;DHT22;22603;47.900;8.146;2022-07-03T16:05:07;28.70;99.90
36594;DHT22;22603;47.900;8.146;2022-07-03T16:07:58;28.50;99.90
36594;DHT22;22603;47.900;8.146;2022-07-03T16:10:48;28.40;99.90
36594;DHT22;22603;47.900;8.146;2022-07-03T16:13:39;28.40;99.90
36594;DHT22;22603;47.900;8.146;2022-07-03T16:16:28;28.40;99.90
36594;DHT22;22603;47.900;8.146;2022-07-03T16:19:17;28.50;99.90
36594;DHT22;22603;47.900;8.146;2022-07-03T16:22:07;28.60;99.90
36594;DHT22;22603;47.900;8.146;2022-07-03T16:24:56;28.30;99.90
36594;DHT22;22603;47.900;8.146;2022-07-03T16:27:45;28.10;99.90
36594;DHT22;22603;47.900;8.146;2022-07-03T16:30:35;28.10;99.90
36594;DHT22;22603;47.900;8.146;2022-07-03T16:33:25;27.90;99.90
36594;DHT22;22603;47.900;8.146;2022-07-03T16:36:20;28.20;99.90
36594;DHT22;22603;47.900;8.146;2022-07-03T16:39:08;28.30;99.90
36594;DHT22;22603;47.900;8.146;2022-07-03T16:42:00;28.10;99.90
36594;DHT22;22603;47.900;8.146;2022-07-03T16:44:50;28.30;99.90
36594;DHT22;22603;47.900;8.146;2022-07-03T16:47:41;28.30;99.90
36594;DHT22;22603;47.900;8.146;2022-07-03T16:50:29;28.30;99.90
36594;DHT22;22603;47.900;8.146;2022-07-03T16:53:17;28.00;99.90
36594;DHT22;22603;47.900;8.146;2022-07-03T16:56:06;27.90;99.90
36594;DHT22;22603;47.900;8.146;2022-07-03T16:58:54;28.00;99.90
36594;DHT22;22603;47.900;8.146;2022-07-03T17:01:42;27.70;99.90
36594;DHT22;22603;47.900;8.146;2022-07-03T17:04:30;27.70;99.90
36594;DHT22;22603;47.900;8.146;2022-07-03T17:07:19;27.60;99.90
36594;DHT22;22603;47.900;8.146;2022-07-03T17:10:07;27.70;99.90
36594;DHT22;22603;47.900;8.146;2022-07-03T17:12:56;27.50;99.90
36594;DHT22;22603;47.900;8.146;2022-07-03T17:15:45;27.60;99.90
36594;DHT22;22603;47.900;8.146;2022-07-03T17:18:41;27.30;99.90
36594;DHT22;22603;47.900;8.146;2022-07-03T17:21:30;27.00;99.90
36594;DHT22;22603;47.900;8.146;2022-07-03T17:24:18;26.70;99.90
36594;DHT22;22603;47.900;8.146;2022-07-03T17:27:07;26.50;99.90
36594;DHT22;22603;47.900;8.146;2022-07-03T17:30:03;26.20;99.90
36594;DHT22;22603;47.900;8.146;2022-07-03T17:32:52;25.90;99.90
36594;DHT22;22603;47.900;8.146;2022-07-03T17:35:43;25.70;99.90
36594;DHT22;22603;47.900;8.146;2022-07-03T17:38:33;25.40;99.90
36594;DHT22;22603;47.900;8.146;2022-07-03T17:41:30;25.20;99.90
36594;DHT22;22603;47.900;8.146;2022-07-03T17:44:20;25.30;99.90
36594;DHT22;22603;47.900;8.146;2022-07-03T17:47:11;25.20;99.90
36594;DHT22;22603;47.900;8.146;2022-07-03T17:50:01;25.00;99.90
36594;DHT22;22603;47.900;8.146;2022-07-03T17:52:51;25.10;99.90
36594;DHT22;22603;47.900;8.146;2022-07-03T17:55:39;25.20;99.90
36594;DHT22;22603;47.900;8.146;2022-07-03T17:58:27;25.10;99.90
36594;DHT22;22603;47.900;8.146;2022-07-03T18:01:16;25.10;99.90